sensor_id;sensor_type;location;lat;lon;timestamp;P1;durP1;ratioP1;P2;durP2;ratioP2
11877;SDS011;5998;42.676;23.268;2022-07-23T00:00:12;9.90;;;4.93;;
11877;SDS011;5998;42.676;23.268;2022-07-23T00:02:39;8.57;;;4.70;;
11877;SDS011;5998;42.676;23.268;2022-07-23T00:05:06;5.93;;;4.53;;
11877;SDS011;5998;42.676;23.268;2022-07-23T00:07:33;7.40;;;4.70;;
11877;SDS011;5998;42.676;23.268;2022-07-23T00:10:00;8.03;;;5.30;;
11877;SDS011;5998;42.676;23.268;2022-07-23T00:12:27;8.87;;;5.00;;
11877;SDS011;5998;42.676;23.268;2022-07-23T00:14:53;8.17;;;5.30;;
11877;SDS011;5998;42.676;23.268;2022-07-23T00:17:21;8.67;;;4.80;;
11877;SDS011;5998;42.676;23.268;2022-07-23T00:19:48;9.43;;;4.90;;
11877;SDS011;5998;42.676;23.268;2022-07-23T00:22:15;7.40;;;5.10;;
11877;SDS011;5998;42.676;23.268;2022-07-23T00:24:42;5.57;;;5.00;;
11877;SDS011;5998;42.676;23.268;2022-07-23T00:27:09;8.63;;;4.90;;
11877;SDS011;5998;42.676;23.268;2022-07-23T00:29:36;7.20;;;4.87;;
11877;SDS011;5998;42.676;23.268;2022-07-23T00:32:03;8.67;;;5.00;;
11877;SDS011;5998;42.676;23.268;2022-07-23T00:34:32;7.50;;;4.90;;
11877;SDS011;5998;42.676;23.268;2022-07-23T00:36:59;10.67;;;4.83;;
11877;SDS011;5998;42.676;23.268;2022-07-23T00:39:26;6.57;;;4.83;;
11877;SDS011;5998;42.676;23.268;2022-07-23T00:41:53;7.37;;;4.87;;
11877;SDS011;5998;42.676;23.268;2022-07-23T00:44:20;9.17;;;5.20;;
11877;SDS011;5998;42.676;23.268;2022-07-23T00:46:50;7.93;;;4.77;;
11877;SDS011;5998;42.676;23.268;2022-07-23T00:49:19;5.77;;;5.13;;
11877;SDS011;5998;42.676;23.268;2022-07-23T00:51:48;13.23;;;5.37;;
11877;SDS011;5998;42.676;23.268;2022-07-23T00:54:16;6.57;;;5.30;;
11877;SDS011;5998;42.676;23.268;2022-07-23T00:56:44;8.17;;;5.30;;
11877;SDS011;5998;42.676;23.268;2022-07-23T00:59:12;7.47;;;5.40;;
11877;SDS011;5998;42.676;23.268;2022-07-23T01:01:40;8.27;;;5.03;;
11877;SDS011;5998;42.676;23.268;2022-07-23T01:04:09;8.57;;;5.17;;
11877;SDS011;5998;42.676;23.268;2022-07-23T01:06:36;9.27;;;5.17;;
11877;SDS011;5998;42.676;23.268;2022-07-23T01:09:06;8.33;;;5.30;;
11877;SDS011;5998;42.676;23.268;2022-07-23T01:11:34;9.23;;;5.23;;
11877;SDS011;5998;42.676;23.268;2022-07-23T01:14:07;6.00;;;5.40;;
11877;SDS011;5998;42.676;23.268;2022-07-23T01:16:38;5.97;;;5.30;;
11877;SDS011;5998;42.676;23.268;2022-07-23T01:19:06;7.07;;;5.23;;
11877;SDS011;5998;42.676;23.268;2022-07-23T01:21:35;11.00;;;5.60;;
11877;SDS011;5998;42.676;23.268;2022-07-23T01:24:05;9.70;;;5.57;;
11877;SDS011;5998;42.676;23.268;2022-07-23T01:26:33;9.20;;;5.37;;
11877;SDS011;5998;42.676;23.268;2022-07-23T01:29:00;8.03;;;5.37;;
11877;SDS011;5998;42.676;23.268;2022-07-23T01:31:28;6.63;;;5.43;;
11877;SDS011;5998;42.676;23.268;2022-07-23T01:33:56;9.83;;;5.43;;
11877;SDS011;5998;42.676;23.268;2022-07-23T01:36:23;9.60;;;5.27;;
11877;SDS011;5998;42.676;23.268;2022-07-23T01:38:51;9.60;;;5.57;;
11877;SDS011;5998;42.676;23.268;2022-07-23T01:41:19;12.07;;;5.70;;
11877;SDS011;5998;42.676;23.268;2022-07-23T01:43:46;11.27;;;5.60;;
11877;SDS011;5998;42.676;23.268;2022-07-23T01:46:13;11.77;;;6.10;;
11877;SDS011;5998;42.676;23.268;2022-07-23T01:48:40;5.93;;;5.33;;
11877;SDS011;5998;42.676;23.268;2022-07-23T01:51:07;9.43;;;5.47;;
11877;SDS011;5998;42.676;23.268;2022-07-23T01:53:34;10.53;;;5.50;;
11877;SDS011;5998;42.676;23.268;2022-07-23T01:56:01;6.23;;;5.50;;
11877;SDS011;5998;42.676;23.268;2022-07-23T01:58:30;10.77;;;5.80;;
11877;SDS011;5998;42.676;23.268;2022-07-23T02:00:57;8.07;;;5.10;;
11877;SDS011;5998;42.676;23.268;2022-07-23T02:03:25;9.60;;;5.47;;
11877;SDS011;5998;42.676;23.268;2022-07-23T02:05:52;8.07;;;5.50;;
11877;SDS011;5998;42.676;23.268;2022-07-23T02:08:19;6.67;;;5.30;;
11877;SDS011;5998;42.676;23.268;2022-07-23T02:10:46;9.63;;;5.20;;
11877;SDS011;5998;42.676;23.268;2022-07-23T02:13:13;8.77;;;5.23;;
11877;SDS011;5998;42.676;23.268;2022-07-23T02:15:42;7.33;;;5.80;;
11877;SDS011;5998;42.676;23.268;2022-07-23T02:18:09;6.00;;;5.13;;
11877;SDS011;5998;42.676;23.268;2022-07-23T02:20:36;8.67;;;5.80;;
11877;SDS011;5998;42.676;23.268;2022-07-23T02:23:04;14.10;;;6.30;;
11877;SDS011;5998;42.676;23.268;2022-07-23T02:25:33;11.57;;;5.90;;
11877;SDS011;5998;42.676;23.268;2022-07-23T02:28:00;8.93;;;5.67;;
11877;SDS011;5998;42.676;23.268;2022-07-23T02:30:27;7.03;;;5.20;;
11877;SDS011;5998;42.676;23.268;2022-07-23T02:32:55;16.03;;;6.17;;
11877;SDS011;5998;42.676;23.268;2022-07-23T02:35:22;10.83;;;5.97;;
11877;SDS011;5998;42.676;23.268;2022-07-23T02:37:49;15.97;;;5.77;;
11877;SDS011;5998;42.676;23.268;2022-07-23T02:40:16;11.80;;;6.03;;
11877;SDS011;5998;42.676;23.268;2022-07-23T02:42:44;15.33;;;6.13;;
11877;SDS011;5998;42.676;23.268;2022-07-23T02:45:11;13.87;;;6.37;;
11877;SDS011;5998;42.676;23.268;2022-07-23T02:47:38;22.00;;;6.80;;
11877;SDS011;5998;42.676;23.268;2022-07-23T02:50:07;13.63;;;6.07;;
11877;SDS011;5998;42.676;23.268;2022-07-23T02:52:36;14.47;;;6.53;;
11877;SDS011;5998;42.676;23.268;2022-07-23T02:55:03;15.13;;;6.90;;
11877;SDS011;5998;42.676;23.268;2022-07-23T02:57:31;13.77;;;6.20;;
11877;SDS011;5998;42.676;23.268;2022-07-23T02:59:58;8.80;;;5.83;;
11877;SDS011;5998;42.676;23.268;2022-07-23T03:02:25;12.53;;;5.70;;
11877;SDS011;5998;42.676;23.268;2022-07-23T03:04:52;13.23;;;6.33;;
11877;SDS011;5998;42.676;23.268;2022-07-23T03:07:20;15.40;;;6.73;;
11877;SDS011;5998;42.676;23.268;2022-07-23T03:09:47;19.53;;;6.90;;
11877;SDS011;5998;42.676;23.268;2022-07-23T03:12:14;15.10;;;6.80;;
11877;SDS011;5998;42.676;23.268;2022-07-23T03:14:41;15.77;;;5.87;;
11877;SDS011;5998;42.676;23.268;2022-07-23T03:17:08;12.97;;;6.00;;
11877;SDS011;5998;42.676;23.268;2022-07-23T03:19:35;32.57;;;8.70;;
11877;SDS011;5998;42.676;23.268;2022-07-23T03:22:03;19.63;;;8.07;;
11877;SDS011;5998;42.676;23.268;2022-07-23T03:24:32;15.70;;;7.00;;
11877;SDS011;5998;42.676;23.268;2022-07-23T03:27:12;13.30;;;6.03;;
11877;SDS011;5998;42.676;23.268;2022-07-23T03:29:39;16.00;;;6.33;;
11877;SDS011;5998;42.676;23.268;2022-07-23T03:32:06;16.97;;;6.90;;
11877;SDS011;5998;42.676;23.268;2022-07-23T03:34:33;13.20;;;6.90;;
11877;SDS011;5998;42.676;23.268;2022-07-23T03:37:00;14.93;;;6.87;;
11877;SDS011;5998;42.676;23.268;2022-07-23T03:39:27;9.20;;;5.90;;
11877;SDS011;5998;42.676;23.268;2022-07-23T03:41:56;12.67;;;6.60;;
11877;SDS011;5998;42.676;23.268;2022-07-23T03:44:23;14.50;;;6.53;;
11877;SDS011;5998;42.676;23.268;2022-07-23T03:46:50;17.40;;;7.47;;
11877;SDS011;5998;42.676;23.268;2022-07-23T03:49:16;21.23;;;7.93;;
11877;SDS011;5998;42.676;23.268;2022-07-23T03:51:43;20.60;;;7.63;;
11877;SDS011;5998;42.676;23.268;2022-07-23T03:54:10;23.70;;;7.27;;
11877;SDS011;5998;42.676;23.268;2022-07-23T03:56:37;13.43;;;6.97;;
11877;SDS011;5998;42.676;23.268;2022-07-23T03:59:06;15.80;;;6.07;;
11877;SDS011;5998;42.676;23.268;2022-07-23T04:01:32;12.30;;;5.70;;
11877;SDS011;5998;42.676;23.268;2022-07-23T04:03:59;10.27;;;6.20;;
11877;SDS011;5998;42.676;23.268;2022-07-23T04:06:27;9.87;;;6.07;;
11877;SDS011;5998;42.676;23.268;2022-07-23T04:08:54;20.03;;;7.80;;
11877;SDS011;5998;42.676;23.268;2022-07-23T04:11:21;13.67;;;7.10;;
11877;SDS011;5998;42.676;23.268;2022-07-23T04:13:48;9.73;;;6.50;;
11877;SDS011;5998;42.676;23.268;2022-07-23T04:16:16;15.17;;;7.67;;
11877;SDS011;5998;42.676;23.268;2022-07-23T04:18:43;9.60;;;7.50;;
11877;SDS011;5998;42.676;23.268;2022-07-23T04:21:10;8.47;;;7.20;;
11877;SDS011;5998;42.676;23.268;2022-07-23T04:23:37;18.77;;;7.97;;
11877;SDS011;5998;42.676;23.268;2022-07-23T04:26:04;16.93;;;7.70;;
11877;SDS011;5998;42.676;23.268;2022-07-23T04:28:31;13.57;;;8.00;;
11877;SDS011;5998;42.676;23.268;2022-07-23T04:30:58;10.80;;;7.60;;
11877;SDS011;5998;42.676;23.268;2022-07-23T04:33:27;16.03;;;7.73;;
11877;SDS011;5998;42.676;23.268;2022-07-23T04:35:54;13.63;;;7.13;;
11877;SDS011;5998;42.676;23.268;2022-07-23T04:38:21;10.50;;;7.93;;
11877;SDS011;5998;42.676;23.268;2022-07-23T04:40:48;11.30;;;6.80;;
11877;SDS011;5998;42.676;23.268;2022-07-23T04:43:15;11.70;;;7.70;;
11877;SDS011;5998;42.676;23.268;2022-07-23T04:45:42;11.57;;;7.07;;
11877;SDS011;5998;42.676;23.268;2022-07-23T04:48:09;12.23;;;7.67;;
11877;SDS011;5998;42.676;23.268;2022-07-23T04:50:37;9.33;;;7.23;;
11877;SDS011;5998;42.676;23.268;2022-07-23T04:53:04;14.43;;;8.07;;
11877;SDS011;5998;42.676;23.268;2022-07-23T04:55:30;10.13;;;7.37;;
11877;SDS011;5998;42.676;23.268;2022-07-23T04:57:57;11.67;;;7.83;;
11877;SDS011;5998;42.676;23.268;2022-07-23T05:00:24;9.00;;;7.50;;
11877;SDS011;5998;42.676;23.268;2022-07-23T05:02:51;12.70;;;8.03;;
11877;SDS011;5998;42.676;23.268;2022-07-23T05:05:17;11.00;;;7.10;;
11877;SDS011;5998;42.676;23.268;2022-07-23T05:07:45;10.97;;;7.23;;
11877;SDS011;5998;42.676;23.268;2022-07-23T05:10:12;10.47;;;7.30;;
11877;SDS011;5998;42.676;23.268;2022-07-23T05:12:39;12.47;;;7.37;;
11877;SDS011;5998;42.676;23.268;2022-07-23T05:15:06;13.50;;;7.33;;
11877;SDS011;5998;42.676;23.268;2022-07-23T05:17:33;10.40;;;6.90;;
11877;SDS011;5998;42.676;23.268;2022-07-23T05:19:59;11.43;;;7.53;;
11877;SDS011;5998;42.676;23.268;2022-07-23T05:22:26;12.23;;;6.90;;
11877;SDS011;5998;42.676;23.268;2022-07-23T05:24:54;7.77;;;7.00;;
11877;SDS011;5998;42.676;23.268;2022-07-23T05:27:21;9.47;;;7.30;;
11877;SDS011;5998;42.676;23.268;2022-07-23T05:29:48;11.63;;;6.93;;
11877;SDS011;5998;42.676;23.268;2022-07-23T05:32:15;11.07;;;7.20;;
11877;SDS011;5998;42.676;23.268;2022-07-23T05:34:42;12.50;;;6.83;;
11877;SDS011;5998;42.676;23.268;2022-07-23T05:37:08;9.57;;;6.93;;
11877;SDS011;5998;42.676;23.268;2022-07-23T05:39:35;7.60;;;6.73;;
11877;SDS011;5998;42.676;23.268;2022-07-23T05:42:04;10.63;;;7.10;;
11877;SDS011;5998;42.676;23.268;2022-07-23T05:44:31;9.60;;;7.10;;
11877;SDS011;5998;42.676;23.268;2022-07-23T05:46:58;10.07;;;7.43;;
11877;SDS011;5998;42.676;23.268;2022-07-23T05:49:25;13.63;;;9.20;;
11877;SDS011;5998;42.676;23.268;2022-07-23T05:51:52;10.50;;;7.10;;
11877;SDS011;5998;42.676;23.268;2022-07-23T05:54:19;11.33;;;7.60;;
11877;SDS011;5998;42.676;23.268;2022-07-23T05:56:46;15.40;;;8.33;;
11877;SDS011;5998;42.676;23.268;2022-07-23T05:59:14;8.93;;;6.73;;
11877;SDS011;5998;42.676;23.268;2022-07-23T06:01:41;13.50;;;8.17;;
11877;SDS011;5998;42.676;23.268;2022-07-23T06:04:07;9.67;;;7.37;;
11877;SDS011;5998;42.676;23.268;2022-07-23T06:06:34;9.87;;;7.60;;
11877;SDS011;5998;42.676;23.268;2022-07-23T06:09:01;9.27;;;6.63;;
11877;SDS011;5998;42.676;23.268;2022-07-23T06:11:28;10.15;;;6.90;;
11877;SDS011;5998;42.676;23.268;2022-07-23T06:13:55;10.90;;;6.97;;
11877;SDS011;5998;42.676;23.268;2022-07-23T06:16:23;12.82;;;8.18;;
11877;SDS011;5998;42.676;23.268;2022-07-23T06:18:49;8.88;;;6.80;;
11877;SDS011;5998;42.676;23.268;2022-07-23T06:21:16;11.80;;;7.07;;
11877;SDS011;5998;42.676;23.268;2022-07-23T06:23:43;8.68;;;6.95;;
11877;SDS011;5998;42.676;23.268;2022-07-23T06:26:10;8.85;;;6.85;;
11877;SDS011;5998;42.676;23.268;2022-07-23T06:28:37;11.70;;;7.15;;
11877;SDS011;5998;42.676;23.268;2022-07-23T06:31:03;8.98;;;6.60;;
11877;SDS011;5998;42.676;23.268;2022-07-23T06:33:32;11.07;;;6.72;;
11877;SDS011;5998;42.676;23.268;2022-07-23T06:35:59;6.88;;;6.28;;
11877;SDS011;5998;42.676;23.268;2022-07-23T06:38:26;9.15;;;6.57;;
11877;SDS011;5998;42.676;23.268;2022-07-23T06:40:53;9.57;;;7.40;;
11877;SDS011;5998;42.676;23.268;2022-07-23T06:43:20;10.48;;;6.95;;
11877;SDS011;5998;42.676;23.268;2022-07-23T06:45:46;11.07;;;7.57;;
11877;SDS011;5998;42.676;23.268;2022-07-23T06:48:13;9.63;;;6.68;;
11877;SDS011;5998;42.676;23.268;2022-07-23T06:50:41;10.27;;;6.65;;
11877;SDS011;5998;42.676;23.268;2022-07-23T06:53:08;16.02;;;7.55;;
11877;SDS011;5998;42.676;23.268;2022-07-23T06:55:35;12.70;;;7.55;;
11877;SDS011;5998;42.676;23.268;2022-07-23T06:58:03;12.40;;;7.35;;
11877;SDS011;5998;42.676;23.268;2022-07-23T07:00:30;12.90;;;7.53;;
11877;SDS011;5998;42.676;23.268;2022-07-23T07:02:58;12.60;;;7.60;;
11877;SDS011;5998;42.676;23.268;2022-07-23T07:05:25;14.45;;;9.60;;
11877;SDS011;5998;42.676;23.268;2022-07-23T07:07:53;9.25;;;7.93;;
11877;SDS011;5998;42.676;23.268;2022-07-23T07:10:21;11.05;;;7.10;;
11877;SDS011;5998;42.676;23.268;2022-07-23T07:12:48;10.15;;;7.60;;
11877;SDS011;5998;42.676;23.268;2022-07-23T07:15:15;15.25;;;8.35;;
11877;SDS011;5998;42.676;23.268;2022-07-23T07:17:41;16.20;;;8.68;;
11877;SDS011;5998;42.676;23.268;2022-07-23T07:20:09;12.95;;;8.00;;
11877;SDS011;5998;42.676;23.268;2022-07-23T07:22:36;12.85;;;7.55;;
11877;SDS011;5998;42.676;23.268;2022-07-23T07:25:05;12.05;;;7.53;;
11877;SDS011;5998;42.676;23.268;2022-07-23T07:27:32;14.77;;;7.88;;
11877;SDS011;5998;42.676;23.268;2022-07-23T07:29:59;11.85;;;7.43;;
11877;SDS011;5998;42.676;23.268;2022-07-23T07:32:26;11.93;;;7.20;;
11877;SDS011;5998;42.676;23.268;2022-07-23T07:34:53;14.82;;;8.02;;
11877;SDS011;5998;42.676;23.268;2022-07-23T07:37:20;8.73;;;7.55;;
11877;SDS011;5998;42.676;23.268;2022-07-23T07:39:46;10.35;;;7.75;;
11877;SDS011;5998;42.676;23.268;2022-07-23T07:42:14;9.15;;;7.13;;
11877;SDS011;5998;42.676;23.268;2022-07-23T07:44:42;8.00;;;6.68;;
11877;SDS011;5998;42.676;23.268;2022-07-23T07:47:08;12.90;;;6.82;;
11877;SDS011;5998;42.676;23.268;2022-07-23T07:49:35;7.18;;;6.47;;
11877;SDS011;5998;42.676;23.268;2022-07-23T07:52:02;10.63;;;7.38;;
11877;SDS011;5998;42.676;23.268;2022-07-23T07:54:31;14.25;;;6.97;;
11877;SDS011;5998;42.676;23.268;2022-07-23T07:56:58;15.45;;;7.72;;
11877;SDS011;5998;42.676;23.268;2022-07-23T07:59:27;10.68;;;7.20;;
11877;SDS011;5998;42.676;23.268;2022-07-23T08:01:54;8.63;;;6.50;;
11877;SDS011;5998;42.676;23.268;2022-07-23T08:04:20;13.45;;;7.28;;
11877;SDS011;5998;42.676;23.268;2022-07-23T08:06:47;11.25;;;6.28;;
11877;SDS011;5998;42.676;23.268;2022-07-23T08:09:14;12.20;;;7.20;;
11877;SDS011;5998;42.676;23.268;2022-07-23T08:11:41;12.70;;;7.93;;
11877;SDS011;5998;42.676;23.268;2022-07-23T08:14:08;11.52;;;6.85;;
11877;SDS011;5998;42.676;23.268;2022-07-23T08:16:37;11.23;;;7.00;;
11877;SDS011;5998;42.676;23.268;2022-07-23T08:19:04;10.00;;;6.93;;
11877;SDS011;5998;42.676;23.268;2022-07-23T08:21:31;11.80;;;7.20;;
11877;SDS011;5998;42.676;23.268;2022-07-23T08:23:58;13.82;;;7.93;;
11877;SDS011;5998;42.676;23.268;2022-07-23T08:26:25;8.18;;;7.35;;
11877;SDS011;5998;42.676;23.268;2022-07-23T08:28:52;10.02;;;7.32;;
11877;SDS011;5998;42.676;23.268;2022-07-23T08:31:19;14.70;;;7.53;;
11877;SDS011;5998;42.676;23.268;2022-07-23T08:33:47;11.50;;;7.65;;
11877;SDS011;5998;42.676;23.268;2022-07-23T08:36:13;16.75;;;7.53;;
11877;SDS011;5998;42.676;23.268;2022-07-23T08:38:40;10.05;;;7.68;;
11877;SDS011;5998;42.676;23.268;2022-07-23T08:41:08;8.48;;;7.57;;
11877;SDS011;5998;42.676;23.268;2022-07-23T08:43:35;10.30;;;6.70;;
11877;SDS011;5998;42.676;23.268;2022-07-23T08:46:03;8.13;;;6.55;;
11877;SDS011;5998;42.676;23.268;2022-07-23T08:48:30;10.48;;;7.25;;
11877;SDS011;5998;42.676;23.268;2022-07-23T08:51:00;11.15;;;6.90;;
11877;SDS011;5998;42.676;23.268;2022-07-23T08:53:29;14.70;;;8.25;;
11877;SDS011;5998;42.676;23.268;2022-07-23T08:55:59;11.80;;;7.20;;
11877;SDS011;5998;42.676;23.268;2022-07-23T08:58:28;9.70;;;7.72;;
11877;SDS011;5998;42.676;23.268;2022-07-23T09:00:55;12.27;;;7.53;;
11877;SDS011;5998;42.676;23.268;2022-07-23T09:03:23;13.75;;;7.43;;
11877;SDS011;5998;42.676;23.268;2022-07-23T09:05:52;12.77;;;8.10;;
11877;SDS011;5998;42.676;23.268;2022-07-23T09:08:22;8.65;;;6.72;;
11877;SDS011;5998;42.676;23.268;2022-07-23T09:10:51;13.48;;;8.50;;
11877;SDS011;5998;42.676;23.268;2022-07-23T09:13:26;10.60;;;7.90;;
11877;SDS011;5998;42.676;23.268;2022-07-23T09:15:59;11.18;;;6.90;;
11877;SDS011;5998;42.676;23.268;2022-07-23T09:18:34;9.32;;;6.93;;
11877;SDS011;5998;42.676;23.268;2022-07-23T09:21:14;10.50;;;7.10;;
11877;SDS011;5998;42.676;23.268;2022-07-23T09:23:49;13.18;;;7.55;;
11877;SDS011;5998;42.676;23.268;2022-07-23T09:26:25;17.13;;;7.80;;
11877;SDS011;5998;42.676;23.268;2022-07-23T09:28:58;11.52;;;7.30;;
11877;SDS011;5998;42.676;23.268;2022-07-23T09:31:34;11.43;;;7.60;;
11877;SDS011;5998;42.676;23.268;2022-07-23T09:34:09;13.02;;;7.38;;
11877;SDS011;5998;42.676;23.268;2022-07-23T09:36:39;10.55;;;7.53;;
11877;SDS011;5998;42.676;23.268;2022-07-23T09:39:08;7.95;;;6.88;;
11877;SDS011;5998;42.676;23.268;2022-07-23T09:41:37;10.50;;;7.68;;
11877;SDS011;5998;42.676;23.268;2022-07-23T09:44:07;12.85;;;7.07;;
11877;SDS011;5998;42.676;23.268;2022-07-23T09:46:38;9.68;;;6.50;;
11877;SDS011;5998;42.676;23.268;2022-07-23T09:49:11;12.18;;;6.75;;
11877;SDS011;5998;42.676;23.268;2022-07-23T09:51:46;9.27;;;6.47;;
11877;SDS011;5998;42.676;23.268;2022-07-23T09:56:59;9.48;;;5.70;;
11877;SDS011;5998;42.676;23.268;2022-07-23T09:59:29;6.80;;;5.30;;
11877;SDS011;5998;42.676;23.268;2022-07-23T10:01:59;8.35;;;5.47;;
11877;SDS011;5998;42.676;23.268;2022-07-23T10:04:27;8.95;;;6.07;;
11877;SDS011;5998;42.676;23.268;2022-07-23T10:06:55;9.40;;;5.72;;
11877;SDS011;5998;42.676;23.268;2022-07-23T10:09:23;12.32;;;6.60;;
11877;SDS011;5998;42.676;23.268;2022-07-23T10:11:57;10.30;;;6.05;;
11877;SDS011;5998;42.676;23.268;2022-07-23T10:14:39;10.40;;;6.28;;
11877;SDS011;5998;42.676;23.268;2022-07-23T10:17:06;9.32;;;6.20;;
11877;SDS011;5998;42.676;23.268;2022-07-23T10:19:34;8.18;;;4.80;;
11877;SDS011;5998;42.676;23.268;2022-07-23T10:22:03;10.73;;;5.88;;
11877;SDS011;5998;42.676;23.268;2022-07-23T10:24:46;8.20;;;5.80;;
11877;SDS011;5998;42.676;23.268;2022-07-23T10:27:23;10.40;;;5.88;;
11877;SDS011;5998;42.676;23.268;2022-07-23T10:30:02;9.48;;;5.78;;
11877;SDS011;5998;42.676;23.268;2022-07-23T10:32:36;20.38;;;6.32;;
11877;SDS011;5998;42.676;23.268;2022-07-23T10:35:12;12.32;;;5.82;;
11877;SDS011;5998;42.676;23.268;2022-07-23T10:37:46;8.77;;;5.63;;
11877;SDS011;5998;42.676;23.268;2022-07-23T10:40:16;11.57;;;5.57;;
11877;SDS011;5998;42.676;23.268;2022-07-23T10:42:47;14.98;;;6.50;;
11877;SDS011;5998;42.676;23.268;2022-07-23T10:45:23;11.00;;;6.22;;
11877;SDS011;5998;42.676;23.268;2022-07-23T10:47:52;12.32;;;5.63;;
11877;SDS011;5998;42.676;23.268;2022-07-23T10:50:21;7.75;;;5.35;;
11877;SDS011;5998;42.676;23.268;2022-07-23T10:55:40;7.30;;;5.25;;
11877;SDS011;5998;42.676;23.268;2022-07-23T10:58:10;10.60;;;5.30;;
11877;SDS011;5998;42.676;23.268;2022-07-23T11:00:44;9.90;;;4.80;;
11877;SDS011;5998;42.676;23.268;2022-07-23T11:06:01;9.10;;;5.63;;
11877;SDS011;5998;42.676;23.268;2022-07-23T11:08:28;9.00;;;5.28;;
11877;SDS011;5998;42.676;23.268;2022-07-23T11:10:57;10.77;;;5.00;;
11877;SDS011;5998;42.676;23.268;2022-07-23T11:13:43;12.80;;;4.80;;
11877;SDS011;5998;42.676;23.268;2022-07-23T11:16:12;9.18;;;4.95;;
11877;SDS011;5998;42.676;23.268;2022-07-23T11:21:49;12.80;;;5.00;;
11877;SDS011;5998;42.676;23.268;2022-07-23T11:24:21;13.30;;;5.07;;
11877;SDS011;5998;42.676;23.268;2022-07-23T11:26:53;11.18;;;4.97;;
11877;SDS011;5998;42.676;23.268;2022-07-23T11:32:19;10.27;;;4.85;;
11877;SDS011;5998;42.676;23.268;2022-07-23T11:34:50;12.52;;;4.97;;
11877;SDS011;5998;42.676;23.268;2022-07-23T11:37:28;12.43;;;5.18;;
11877;SDS011;5998;42.676;23.268;2022-07-23T11:39:58;11.73;;;5.07;;
11877;SDS011;5998;42.676;23.268;2022-07-23T11:42:26;13.13;;;4.78;;
11877;SDS011;5998;42.676;23.268;2022-07-23T11:44:54;16.77;;;5.07;;
11877;SDS011;5998;42.676;23.268;2022-07-23T11:47:21;17.15;;;5.45;;
11877;SDS011;5998;42.676;23.268;2022-07-23T11:49:52;13.75;;;5.35;;
11877;SDS011;5998;42.676;23.268;2022-07-23T11:52:21;12.60;;;5.13;;
11877;SDS011;5998;42.676;23.268;2022-07-23T11:54:49;9.35;;;5.00;;
11877;SDS011;5998;42.676;23.268;2022-07-23T11:57:17;15.18;;;4.95;;
11877;SDS011;5998;42.676;23.268;2022-07-23T11:59:45;13.68;;;4.90;;
11877;SDS011;5998;42.676;23.268;2022-07-23T12:02:18;15.25;;;4.65;;
11877;SDS011;5998;42.676;23.268;2022-07-23T12:04:48;16.27;;;5.45;;
11877;SDS011;5998;42.676;23.268;2022-07-23T12:07:26;17.83;;;4.97;;
11877;SDS011;5998;42.676;23.268;2022-07-23T12:09:58;9.85;;;4.38;;
11877;SDS011;5998;42.676;23.268;2022-07-23T12:12:26;14.70;;;4.55;;
11877;SDS011;5998;42.676;23.268;2022-07-23T12:14:54;12.32;;;5.05;;
11877;SDS011;5998;42.676;23.268;2022-07-23T12:17:28;9.32;;;4.70;;
11877;SDS011;5998;42.676;23.268;2022-07-23T12:19:57;11.13;;;4.93;;
11877;SDS011;5998;42.676;23.268;2022-07-23T12:22:25;15.20;;;5.90;;
11877;SDS011;5998;42.676;23.268;2022-07-23T12:24:59;15.18;;;5.35;;
11877;SDS011;5998;42.676;23.268;2022-07-23T12:27:27;10.18;;;4.80;;
11877;SDS011;5998;42.676;23.268;2022-07-23T12:29:54;12.82;;;4.90;;
11877;SDS011;5998;42.676;23.268;2022-07-23T12:32:22;8.98;;;4.75;;
11877;SDS011;5998;42.676;23.268;2022-07-23T12:35:03;19.20;;;5.38;;
11877;SDS011;5998;42.676;23.268;2022-07-23T12:37:32;10.32;;;5.18;;
11877;SDS011;5998;42.676;23.268;2022-07-23T12:42:45;11.57;;;5.43;;
11877;SDS011;5998;42.676;23.268;2022-07-23T12:45:13;13.35;;;5.13;;
11877;SDS011;5998;42.676;23.268;2022-07-23T12:47:53;14.65;;;5.47;;
11877;SDS011;5998;42.676;23.268;2022-07-23T12:50:48;12.55;;;5.00;;
11877;SDS011;5998;42.676;23.268;2022-07-23T12:53:18;13.00;;;5.53;;
11877;SDS011;5998;42.676;23.268;2022-07-23T12:55:47;17.10;;;5.03;;
11877;SDS011;5998;42.676;23.268;2022-07-23T12:58:14;10.38;;;5.03;;
11877;SDS011;5998;42.676;23.268;2022-07-23T13:00:57;10.13;;;4.65;;
11877;SDS011;5998;42.676;23.268;2022-07-23T13:03:31;12.90;;;5.25;;
11877;SDS011;5998;42.676;23.268;2022-07-23T13:06:01;13.65;;;5.80;;
11877;SDS011;5998;42.676;23.268;2022-07-23T13:08:30;16.60;;;5.38;;
11877;SDS011;5998;42.676;23.268;2022-07-23T13:11:00;12.57;;;5.28;;
11877;SDS011;5998;42.676;23.268;2022-07-23T13:13:28;11.73;;;5.57;;
11877;SDS011;5998;42.676;23.268;2022-07-23T13:15:56;13.48;;;5.45;;
11877;SDS011;5998;42.676;23.268;2022-07-23T13:18:24;13.85;;;4.90;;
11877;SDS011;5998;42.676;23.268;2022-07-23T13:20:51;10.32;;;4.72;;
11877;SDS011;5998;42.676;23.268;2022-07-23T13:23:19;12.52;;;5.60;;
11877;SDS011;5998;42.676;23.268;2022-07-23T13:25:47;9.93;;;4.90;;
11877;SDS011;5998;42.676;23.268;2022-07-23T13:28:14;12.55;;;5.15;;
11877;SDS011;5998;42.676;23.268;2022-07-23T13:30:42;13.75;;;5.07;;
11877;SDS011;5998;42.676;23.268;2022-07-23T13:33:10;9.20;;;4.72;;
11877;SDS011;5998;42.676;23.268;2022-07-23T13:35:37;10.65;;;4.57;;
11877;SDS011;5998;42.676;23.268;2022-07-23T13:38:05;10.50;;;5.03;;
11877;SDS011;5998;42.676;23.268;2022-07-23T13:40:36;7.60;;;4.50;;
11877;SDS011;5998;42.676;23.268;2022-07-23T13:43:05;12.30;;;4.57;;
11877;SDS011;5998;42.676;23.268;2022-07-23T13:45:32;8.73;;;4.80;;
11877;SDS011;5998;42.676;23.268;2022-07-23T13:47:59;8.68;;;4.55;;
11877;SDS011;5998;42.676;23.268;2022-07-23T13:50:26;7.82;;;4.45;;
11877;SDS011;5998;42.676;23.268;2022-07-23T13:52:53;10.93;;;5.30;;
11877;SDS011;5998;42.676;23.268;2022-07-23T13:55:20;11.73;;;4.35;;
11877;SDS011;5998;42.676;23.268;2022-07-23T13:57:48;11.07;;;4.65;;
11877;SDS011;5998;42.676;23.268;2022-07-23T14:00:15;8.57;;;4.60;;
11877;SDS011;5998;42.676;23.268;2022-07-23T14:02:42;9.95;;;5.20;;
11877;SDS011;5998;42.676;23.268;2022-07-23T14:05:10;11.48;;;4.70;;
11877;SDS011;5998;42.676;23.268;2022-07-23T14:07:37;12.15;;;4.72;;
11877;SDS011;5998;42.676;23.268;2022-07-23T14:10:05;12.77;;;4.90;;
11877;SDS011;5998;42.676;23.268;2022-07-23T14:12:33;10.65;;;5.00;;
11877;SDS011;5998;42.676;23.268;2022-07-23T14:15:03;9.45;;;4.70;;
11877;SDS011;5998;42.676;23.268;2022-07-23T14:17:31;11.77;;;4.93;;
11877;SDS011;5998;42.676;23.268;2022-07-23T14:19:59;14.23;;;4.90;;
11877;SDS011;5998;42.676;23.268;2022-07-23T14:22:26;8.90;;;4.43;;
11877;SDS011;5998;42.676;23.268;2022-07-23T14:24:53;14.15;;;5.10;;
11877;SDS011;5998;42.676;23.268;2022-07-23T14:27:22;8.55;;;4.75;;
11877;SDS011;5998;42.676;23.268;2022-07-23T14:29:49;6.63;;;4.93;;
11877;SDS011;5998;42.676;23.268;2022-07-23T14:32:18;10.85;;;4.90;;
11877;SDS011;5998;42.676;23.268;2022-07-23T14:34:45;10.10;;;4.85;;
11877;SDS011;5998;42.676;23.268;2022-07-23T14:37:12;10.18;;;4.85;;
11877;SDS011;5998;42.676;23.268;2022-07-23T14:39:40;10.55;;;5.07;;
11877;SDS011;5998;42.676;23.268;2022-07-23T14:42:07;14.27;;;5.43;;
11877;SDS011;5998;42.676;23.268;2022-07-23T14:44:35;8.55;;;4.80;;
11877;SDS011;5998;42.676;23.268;2022-07-23T14:47:03;10.20;;;4.82;;
11877;SDS011;5998;42.676;23.268;2022-07-23T14:49:32;11.05;;;5.38;;
11877;SDS011;5998;42.676;23.268;2022-07-23T14:52:00;10.82;;;4.70;;
11877;SDS011;5998;42.676;23.268;2022-07-23T14:54:27;9.50;;;4.60;;
11877;SDS011;5998;42.676;23.268;2022-07-23T14:56:56;9.07;;;4.85;;
11877;SDS011;5998;42.676;23.268;2022-07-23T14:59:24;11.95;;;5.25;;
11877;SDS011;5998;42.676;23.268;2022-07-23T15:01:51;11.02;;;4.55;;